Skip Navigation LinksHome page > Weather > Current weather Skip Navigation Links

Current Weather

Chicago O'Hare Intl, Chicago

For information only: do not use for flight planning or navigation.
Latest weather
Observation time Thursday, November 14, 2019 6:51 PM CST
Local time Thursday, November 14, 2019 7:08 PM CST
Flight conditions Marginal Visual Meteorological Conditions
Winds
Wind direction West-Southwest (240°)
Wind speed 12 mph
Visibility 10 mi.
Sky condition
Ceiling 2,000 ft. overcast
Cloud layer overcast 2,000 ft.
Temperature 27°F
Dewpoint 19°F
Altimeter 30.29 in.Hg
Derived measurements
Relative humidity 72%
Wind chill 17°F
Density altitude -1889 ft.
Sea-level pressure 30.32 in.Hg
Remarks
Automated weather observing station with precipitation discriminator.
METAR KORD 150051Z 24010KT 10SM OVC020 M03/M07 A3029 RMK AO2 SLP267 T10281072

Settings

Location code

InnerDrive.Weather 4.0.6770.0 Release CLR 4.0.30319.42000
Copyright ©2018 Inner Drive Technology. All rights reserved. Portions Copyright ©1986-2018 David Braverman.

Find weather

Site navigation


Skip Navigation Links

Place info

Page info

PayPal - The safer, easier way to pay online!

Return home.

Copyright ©2019 Inner Drive Technology. Purveyors of fine, hand-crafted computer software. Page printed 2019-11-15T01:08:14 UTC.